createdAt,value
2022-08-10T00:00:21.393Z,69.21
2022-08-10T00:01:23.291Z,68.99
2022-08-10T00:02:25.128Z,69.00
2022-08-10T00:03:26.937Z,69.02
2022-08-10T00:04:28.711Z,68.77
2022-08-10T00:05:43.874Z,68.87
2022-08-10T00:06:55.732Z,68.99
2022-08-10T00:07:57.612Z,69.01
2022-08-10T00:08:59.554Z,69.21
2022-08-10T00:10:01.361Z,68.85
2022-08-10T00:11:03.284Z,68.76
2022-08-10T00:12:05.901Z,68.83
2022-08-10T00:13:07.881Z,68.91
2022-08-10T00:14:09.686Z,69.20
2022-08-10T00:15:13.100Z,69.68
2022-08-10T00:16:34.917Z,69.82
2022-08-10T00:17:36.857Z,70.11
2022-08-10T00:18:38.755Z,70.19
2022-08-10T00:20:03.869Z,70.33
2022-08-10T00:21:02.559Z,70.14
2022-08-10T00:22:04.324Z,70.49
2022-08-10T00:23:06.068Z,70.67
2022-08-10T00:24:08.051Z,70.43
2022-08-10T00:25:09.986Z,70.81
2022-08-10T00:26:11.816Z,70.67
2022-08-10T00:27:58.958Z,70.01
2022-08-10T00:28:35.515Z,70.81
2022-08-10T00:29:37.366Z,71.12
2022-08-10T00:30:39.172Z,70.85
2022-08-10T00:31:58.754Z,70.96
2022-08-10T00:33:01.165Z,70.71
2022-08-10T00:34:03.125Z,70.55
2022-08-10T00:35:05.362Z,70.77
2022-08-10T00:36:07.560Z,70.26
2022-08-10T00:37:09.352Z,71.06
2022-08-10T00:38:11.191Z,71.74
2022-08-10T00:39:13.825Z,71.73
2022-08-10T00:40:18.430Z,72.04
2022-08-10T00:41:37.200Z,71.66
2022-08-10T00:42:39.037Z,71.71
2022-08-10T00:43:40.767Z,71.74
2022-08-10T00:44:44.107Z,71.43
2022-08-10T00:45:45.972Z,71.33
2022-08-10T00:47:01.749Z,71.07
2022-08-10T00:48:03.898Z,70.97
2022-08-10T00:49:05.788Z,70.94
2022-08-10T00:50:08.452Z,71.20
2022-08-10T00:51:10.907Z,71.41
2022-08-10T00:52:13.635Z,70.73
2022-08-10T00:53:15.533Z,70.74
2022-08-10T00:54:24.059Z,70.75
2022-08-10T00:55:27.120Z,71.10
2022-08-10T00:57:16.969Z,71.45
2022-08-10T00:57:54.792Z,71.25
2022-08-10T00:58:57.475Z,71.09
2022-08-10T01:00:00.486Z,71.15
2022-08-10T01:01:02.705Z,71.61
2022-08-10T01:02:08.946Z,71.83
2022-08-10T01:03:13.742Z,71.65
2022-08-10T01:04:39.768Z,71.41
2022-08-10T01:05:51.295Z,70.86
2022-08-10T01:07:02.932Z,71.08
2022-08-10T01:08:07.481Z,70.33
2022-08-10T01:09:15.269Z,70.92
2022-08-10T01:10:32.797Z,71.08
2022-08-10T01:12:39.550Z,70.96
2022-08-10T01:13:17.349Z,71.49
2022-08-10T01:14:26.895Z,71.53
2022-08-10T01:15:34.732Z,71.63
2022-08-10T01:16:47.799Z,71.38
2022-08-10T01:17:51.125Z,70.96
2022-08-10T01:19:02.341Z,70.84
2022-08-10T01:20:09.683Z,70.81
2022-08-10T01:22:04.675Z,71.47
2022-08-10T01:23:21.729Z,71.27
2022-08-10T01:24:42.421Z,70.94
2022-08-10T01:26:10.973Z,71.02
2022-08-10T01:27:19.327Z,70.63
2022-08-10T01:28:35.002Z,70.49
2022-08-10T01:29:55.710Z,70.96
2022-08-10T01:31:00.416Z,71.08
2022-08-10T01:32:04.325Z,70.79
2022-08-10T01:33:13.977Z,70.72
2022-08-10T01:34:20.188Z,70.91
2022-08-10T01:35:26.368Z,70.87
2022-08-10T01:36:32.021Z,70.88
2022-08-10T01:37:39.115Z,70.66
2022-08-10T01:38:42.664Z,70.43
2022-08-10T01:39:47.210Z,70.69
2022-08-10T01:40:54.878Z,70.61
2022-08-10T01:42:01.646Z,70.62
2022-08-10T01:43:08.604Z,70.63
2022-08-10T01:44:10.762Z,70.48
2022-08-10T01:45:13.663Z,70.38
2022-08-10T01:46:15.955Z,70.25
2022-08-10T01:47:37.586Z,70.16
2022-08-10T01:48:40.524Z,70.37
2022-08-10T01:49:42.561Z,70.63
2022-08-10T01:50:56.224Z,71.33
2022-08-10T01:52:03.499Z,71.42
2022-08-10T01:53:08.007Z,71.46
2022-08-10T01:54:13.165Z,71.15
2022-08-10T01:55:15.638Z,71.47
2022-08-10T01:56:18.397Z,70.85
2022-08-10T01:57:20.982Z,70.76
2022-08-10T01:58:25.600Z,70.73
2022-08-10T01:59:33.024Z,70.38
2022-08-10T02:00:36.647Z,70.28
2022-08-10T02:01:40.822Z,70.41
2022-08-10T02:02:43.601Z,70.26
2022-08-10T02:04:01.264Z,70.10
2022-08-10T02:05:08.069Z,70.48
2022-08-10T02:06:12.994Z,70.21
2022-08-10T02:07:20.175Z,70.23
2022-08-10T02:08:23.857Z,70.63
2022-08-10T02:09:27.395Z,70.50
2022-08-10T02:10:29.960Z,71.03
2022-08-10T02:12:07.887Z,70.32
2022-08-10T02:12:56.948Z,70.52
2022-08-10T02:13:59.843Z,70.54
2022-08-10T02:15:03.867Z,70.44
2022-08-10T02:16:06.504Z,70.44
2022-08-10T02:17:59.780Z,70.47
2022-08-10T02:18:34.398Z,70.28
2022-08-10T02:19:37.127Z,70.23
2022-08-10T02:20:43.922Z,70.12
2022-08-10T02:22:36.242Z,70.12
2022-08-10T02:23:11.877Z,69.88
2022-08-10T02:24:15.866Z,69.70
2022-08-10T02:25:39.678Z,69.56
2022-08-10T02:26:45.265Z,69.68
2022-08-10T02:27:47.969Z,69.34
2022-08-10T02:28:50.241Z,69.45
2022-08-10T02:29:53.654Z,69.88
2022-08-10T02:30:57.922Z,70.29
2022-08-10T02:32:00.609Z,70.64
2022-08-10T02:33:03.826Z,70.99
2022-08-10T02:34:07.195Z,70.92
2022-08-10T02:35:21.866Z,70.96
2022-08-10T02:36:26.547Z,70.67
2022-08-10T02:37:29.801Z,70.32
2022-08-10T02:38:59.830Z,70.25
2022-08-10T02:40:02.566Z,70.72
2022-08-10T02:45:01.479Z,70.67
2022-08-10T02:45:22.445Z,70.33
2022-08-10T02:45:24.120Z,70.16
2022-08-10T02:45:50.184Z,70.21
2022-08-10T02:47:04.507Z,70.52
2022-08-10T02:48:10.032Z,70.28
2022-08-10T02:49:17.542Z,70.24
2022-08-10T02:50:27.622Z,70.37
2022-08-10T02:52:06.813Z,70.63
2022-08-10T02:53:55.408Z,70.33
2022-08-10T02:54:51.015Z,70.80
2022-08-10T02:56:16.226Z,70.65
2022-08-10T02:57:26.788Z,70.64
2022-08-10T02:58:45.291Z,70.65
2022-08-10T02:59:49.636Z,70.50
2022-08-10T03:00:53.901Z,70.33
2022-08-10T03:01:58.037Z,70.57
2022-08-10T03:03:01.098Z,70.47
2022-08-10T03:04:08.252Z,70.37
2022-08-10T03:05:11.914Z,70.28
2022-08-10T03:06:16.202Z,70.13
2022-08-10T03:07:44.298Z,69.87
2022-08-10T03:08:44.073Z,70.26
2022-08-10T03:09:46.398Z,70.06
2022-08-10T03:10:49.706Z,70.31
2022-08-10T03:12:35.082Z,70.24
2022-08-10T03:13:15.364Z,70.26
2022-08-10T03:14:17.800Z,70.64
2022-08-10T03:15:21.219Z,70.39
2022-08-10T03:16:23.541Z,70.71
2022-08-10T03:17:25.705Z,70.51
2022-08-10T03:18:28.940Z,70.67
2022-08-10T03:20:33.704Z,70.84
2022-08-10T03:20:56.050Z,70.87
2022-08-10T03:21:59.736Z,71.14
2022-08-10T03:23:03.650Z,71.16
2022-08-10T03:24:24.872Z,71.02
2022-08-10T03:25:28.702Z,70.81
2022-08-10T03:26:32.433Z,70.74
2022-08-10T03:27:34.308Z,70.63
2022-08-10T03:28:36.407Z,70.30
2022-08-10T03:30:23.481Z,70.33
2022-08-10T03:31:02.442Z,70.29
2022-08-10T03:32:05.547Z,70.54
2022-08-10T03:33:07.938Z,70.31
2022-08-10T03:34:22.110Z,70.43
2022-08-10T03:35:32.218Z,70.52
2022-08-10T03:36:44.039Z,70.25
2022-08-10T03:37:47.160Z,70.25
2022-08-10T03:38:52.001Z,70.43
2022-08-10T03:39:55.083Z,70.58
2022-08-10T03:40:58.029Z,70.37
2022-08-10T03:42:00.871Z,70.64
2022-08-10T03:43:03.674Z,70.48
2022-08-10T03:44:07.253Z,70.13
2022-08-10T03:45:09.863Z,70.63
2022-08-10T03:46:13.762Z,70.92
2022-08-10T03:47:16.685Z,71.02
2022-08-10T03:48:19.466Z,70.89
2022-08-10T03:49:22.304Z,70.78
2022-08-10T03:50:28.092Z,70.73
2022-08-10T03:51:49.536Z,70.69
2022-08-10T03:52:51.541Z,70.28
2022-08-10T03:54:02.930Z,70.22
2022-08-10T03:55:08.353Z,70.26
2022-08-10T03:56:28.672Z,70.20
2022-08-10T03:57:32.207Z,69.95
2022-08-10T03:58:34.426Z,70.00
2022-08-10T03:59:37.165Z,70.22
2022-08-10T04:00:39.310Z,70.56
2022-08-10T04:02:45.904Z,70.53
2022-08-10T04:03:07.514Z,70.86
2022-08-10T04:04:13.080Z,70.90
2022-08-10T04:05:18.405Z,71.05
2022-08-10T04:06:20.335Z,71.02
2022-08-10T04:07:22.289Z,71.06
2022-08-10T04:08:24.269Z,71.19
2022-08-10T04:09:43.076Z,71.57
2022-08-10T04:10:48.893Z,71.13
2022-08-10T04:11:50.671Z,71.23
2022-08-10T04:12:52.669Z,71.18
2022-08-10T04:13:55.135Z,71.10
2022-08-10T04:14:57.027Z,70.85
2022-08-10T04:15:58.927Z,70.69
2022-08-10T04:17:01.911Z,70.83
2022-08-10T04:18:06.376Z,70.78
2022-08-10T04:19:08.580Z,70.80
2022-08-10T04:20:21.242Z,70.80
2022-08-10T04:21:30.685Z,70.75
2022-08-10T04:22:33.634Z,70.96
2022-08-10T04:23:37.546Z,70.95
2022-08-10T04:24:41.956Z,71.06
2022-08-10T04:25:43.902Z,71.03
2022-08-10T04:26:45.945Z,71.08
2022-08-10T04:27:48.386Z,71.06
2022-08-10T04:28:50.410Z,71.46
2022-08-10T04:29:55.507Z,71.84
2022-08-10T04:30:57.847Z,71.59
2022-08-10T04:32:00.857Z,71.55
2022-08-10T04:33:03.411Z,71.51
2022-08-10T04:34:08.872Z,71.37
2022-08-10T04:35:11.552Z,71.83
2022-08-10T04:36:14.253Z,72.12
2022-08-10T04:37:18.415Z,72.02
2022-08-10T04:38:21.603Z,71.88
2022-08-10T04:39:23.963Z,71.96
2022-08-10T04:40:28.983Z,72.61
2022-08-10T04:41:32.698Z,73.84
2022-08-10T04:42:34.762Z,74.04
2022-08-10T04:43:36.765Z,73.88
2022-08-10T04:44:39.244Z,73.66
2022-08-10T04:45:48.293Z,73.16
2022-08-10T04:46:55.689Z,73.15
2022-08-10T04:48:03.062Z,72.90
2022-08-10T04:49:05.583Z,72.71
2022-08-10T04:50:27.839Z,72.76
2022-08-10T04:51:29.682Z,72.97
2022-08-10T04:52:32.096Z,73.14
2022-08-10T04:53:33.920Z,73.51
2022-08-10T04:54:55.963Z,73.68
2022-08-10T04:55:57.952Z,73.71
2022-08-10T04:56:59.834Z,73.79
2022-08-10T04:58:01.742Z,73.69
2022-08-10T04:59:05.410Z,73.53
2022-08-10T05:00:07.603Z,73.50
2022-08-10T05:01:24.710Z,73.27
2022-08-10T05:02:28.934Z,73.02
2022-08-10T05:03:33.606Z,73.15
2022-08-10T05:04:55.366Z,73.08
2022-08-10T05:05:57.275Z,73.15
2022-08-10T05:07:03.709Z,72.83
2022-08-10T05:08:05.483Z,73.00
2022-08-10T05:09:07.235Z,72.99
2022-08-10T05:10:13.410Z,72.94
2022-08-10T05:11:24.180Z,72.92
2022-08-10T05:12:26.609Z,72.69
2022-08-10T05:13:29.600Z,72.66
2022-08-10T05:14:31.437Z,72.53
2022-08-10T05:15:33.343Z,72.64
2022-08-10T05:16:35.155Z,72.75
2022-08-10T05:17:37.674Z,73.10
2022-08-10T05:18:39.501Z,73.15
2022-08-10T05:20:03.171Z,73.00
2022-08-10T05:21:03.157Z,73.12
2022-08-10T05:22:05.381Z,73.32
2022-08-10T05:23:07.677Z,73.15
2022-08-10T05:24:09.569Z,73.24
2022-08-10T05:25:12.788Z,73.29
2022-08-10T05:26:14.634Z,73.08
2022-08-10T05:27:16.440Z,73.23
2022-08-10T05:28:18.649Z,73.83
2022-08-10T05:29:25.466Z,73.85
2022-08-10T05:30:27.442Z,74.12
2022-08-10T05:31:29.340Z,73.78
2022-08-10T05:32:56.914Z,74.20
2022-08-10T05:33:57.185Z,74.12
2022-08-10T05:34:59.027Z,73.97
2022-08-10T05:36:01.360Z,73.99
2022-08-10T05:37:03.306Z,73.87
2022-08-10T05:38:09.519Z,73.83
2022-08-10T05:39:15.199Z,74.78
2022-08-10T05:40:17.270Z,74.78
2022-08-10T05:41:19.487Z,74.39
2022-08-10T05:42:21.994Z,74.42
2022-08-10T05:43:24.364Z,74.07
2022-08-10T05:44:26.430Z,74.30
2022-08-10T05:45:28.311Z,74.63
2022-08-10T05:46:30.208Z,75.03
2022-08-10T05:48:55.191Z,75.54
2022-08-10T05:49:00.218Z,75.30
2022-08-10T05:50:03.161Z,75.36
2022-08-10T05:51:07.425Z,75.81
2022-08-10T05:52:09.487Z,76.44
2022-08-10T05:53:58.889Z,76.94
2022-08-10T05:54:34.497Z,77.24
2022-08-10T05:55:36.568Z,77.03
2022-08-10T05:56:55.788Z,77.12
2022-08-10T05:58:00.166Z,77.42
2022-08-10T05:59:02.086Z,77.31
2022-08-10T06:00:32.895Z,76.84
2022-08-10T06:01:28.636Z,76.66
2022-08-10T06:02:50.408Z,76.39
2022-08-10T06:03:54.364Z,75.99
2022-08-10T06:04:57.293Z,76.48
2022-08-10T06:05:59.504Z,76.90
2022-08-10T06:07:04.471Z,76.96
2022-08-10T06:08:12.869Z,76.49
2022-08-10T06:09:15.574Z,76.65
2022-08-10T06:10:31.383Z,76.86
2022-08-10T06:12:28.113Z,76.44
2022-08-10T06:13:27.125Z,76.13
2022-08-10T06:14:53.030Z,75.71
2022-08-10T06:16:02.895Z,75.22
2022-08-10T06:17:05.918Z,74.87
2022-08-10T06:18:08.031Z,74.81
2022-08-10T06:19:10.914Z,74.86
2022-08-10T06:20:16.345Z,75.76
2022-08-10T06:21:18.567Z,76.03
2022-08-10T06:22:20.358Z,75.51
2022-08-10T06:23:23.668Z,75.97
2022-08-10T06:24:31.113Z,76.38
2022-08-10T06:26:11.375Z,76.03
2022-08-10T06:26:55.325Z,75.45
2022-08-10T06:27:57.757Z,76.08
2022-08-10T06:29:08.058Z,76.05
2022-08-10T06:30:20.970Z,75.89
2022-08-10T06:31:24.304Z,75.72
2022-08-10T06:32:28.777Z,75.64
2022-08-10T06:33:32.183Z,75.54
2022-08-10T06:34:37.637Z,75.23
2022-08-10T06:35:40.274Z,75.32
2022-08-10T06:36:43.924Z,75.04
2022-08-10T06:37:50.915Z,75.01
2022-08-10T06:39:06.876Z,74.91
2022-08-10T06:40:16.780Z,74.62
2022-08-10T06:41:23.777Z,74.71
2022-08-10T06:42:47.324Z,74.51
2022-08-10T06:44:09.394Z,74.36
2022-08-10T06:45:12.477Z,74.58
2022-08-10T06:46:16.830Z,74.26
2022-08-10T06:47:22.893Z,74.44
2022-08-10T06:48:26.822Z,74.70
2022-08-10T06:49:30.035Z,74.59
2022-08-10T06:50:56.056Z,74.35
2022-08-10T06:52:01.954Z,74.58
2022-08-10T06:53:05.749Z,74.37
2022-08-10T06:54:09.300Z,74.66
2022-08-10T06:55:18.709Z,74.43
2022-08-10T06:56:38.133Z,73.96
2022-08-10T06:57:44.402Z,74.55
2022-08-10T06:59:05.857Z,74.55
2022-08-10T07:00:08.537Z,75.37
2022-08-10T07:01:14.886Z,75.23
2022-08-10T07:02:21.961Z,74.66
2022-08-10T07:03:26.738Z,74.51
2022-08-10T07:04:34.354Z,75.45
2022-08-10T07:05:38.567Z,76.78
2022-08-10T07:06:45.611Z,76.54
2022-08-10T07:07:48.556Z,76.97
2022-08-10T07:08:51.599Z,77.00
2022-08-10T07:09:54.869Z,78.37
2022-08-10T07:10:57.041Z,78.34
2022-08-10T07:12:08.375Z,77.48
2022-08-10T07:13:12.703Z,76.39
2022-08-10T07:14:18.582Z,76.17
2022-08-10T07:15:21.190Z,76.24
2022-08-10T07:16:28.522Z,76.22
2022-08-10T07:17:33.847Z,76.35
2022-08-10T07:18:39.126Z,75.52
2022-08-10T07:19:49.439Z,74.97
2022-08-10T07:20:53.910Z,74.79
2022-08-10T07:21:58.094Z,76.67
2022-08-10T07:23:56.868Z,76.64
2022-08-10T07:24:23.581Z,76.03
2022-08-10T07:25:26.217Z,75.58
2022-08-10T07:26:29.179Z,76.53
2022-08-10T07:27:39.080Z,76.11
2022-08-10T07:28:54.096Z,77.08
2022-08-10T07:29:56.649Z,76.93
2022-08-10T07:31:00.023Z,76.01
2022-08-10T07:32:02.982Z,75.77
2022-08-10T07:33:05.759Z,75.73
2022-08-10T07:34:08.264Z,76.22
2022-08-10T07:35:12.059Z,75.14
2022-08-10T07:36:14.510Z,74.39
2022-08-10T07:37:17.322Z,74.54
2022-08-10T07:38:22.263Z,74.55
2022-08-10T07:40:01.974Z,74.54
2022-08-10T07:40:49.096Z,74.57
2022-08-10T07:41:53.263Z,73.84
2022-08-10T07:42:58.358Z,73.80
2022-08-10T07:44:03.336Z,74.13
2022-08-10T07:45:05.719Z,73.86
2022-08-10T07:46:12.395Z,73.41
2022-08-10T07:47:16.337Z,73.97
2022-08-10T07:48:28.952Z,72.44
2022-08-10T07:49:34.827Z,72.20
2022-08-10T07:50:40.802Z,72.36
2022-08-10T07:51:43.186Z,72.70
2022-08-10T07:52:46.493Z,73.21
2022-08-10T07:53:53.061Z,73.32
2022-08-10T07:54:55.740Z,73.91
2022-08-10T07:56:05.234Z,73.07
2022-08-10T07:57:31.354Z,72.71
2022-08-10T07:58:37.157Z,74.60
2022-08-10T07:59:41.002Z,74.50
2022-08-10T08:00:43.996Z,74.42
2022-08-10T08:01:52.351Z,74.35
2022-08-10T08:02:58.918Z,73.32
2022-08-10T08:04:05.782Z,73.19
2022-08-10T08:05:59.116Z,70.99
2022-08-10T08:06:36.901Z,71.29
2022-08-10T08:07:39.545Z,71.46
2022-08-10T08:08:43.023Z,71.67
2022-08-10T08:09:58.179Z,71.46
2022-08-10T08:11:03.365Z,71.32
2022-08-10T08:12:06.845Z,71.54
2022-08-10T08:13:08.930Z,72.07
2022-08-10T08:14:12.422Z,72.95
2022-08-10T08:16:17.796Z,73.76
2022-08-10T08:16:38.888Z,73.40
2022-08-10T08:17:42.281Z,73.96
2022-08-10T08:19:03.671Z,73.05
2022-08-10T08:20:07.943Z,72.18
2022-08-10T08:24:02.258Z,71.62
2022-08-10T08:24:08.544Z,71.28
2022-08-10T08:24:09.125Z,71.91
2022-08-10T08:25:17.644Z,71.38
2022-08-10T08:26:21.650Z,71.53
2022-08-10T08:27:24.499Z,71.75
2022-08-10T08:28:27.318Z,72.32
2022-08-10T08:29:29.611Z,73.64
2022-08-10T08:30:32.444Z,72.96
2022-08-10T08:31:35.257Z,72.81
2022-08-10T08:32:38.971Z,71.76
2022-08-10T08:33:42.881Z,71.75
2022-08-10T08:34:46.069Z,71.01
2022-08-10T08:35:48.918Z,70.58
2022-08-10T08:36:53.907Z,69.94
2022-08-10T08:38:29.176Z,68.99
2022-08-10T08:39:21.247Z,69.03
2022-08-10T08:40:34.176Z,69.24
2022-08-10T08:41:35.877Z,68.72
2022-08-10T08:42:47.161Z,68.59
2022-08-10T08:44:04.441Z,68.79
2022-08-10T08:45:24.372Z,68.26
2022-08-10T08:46:45.002Z,68.34
2022-08-10T08:48:04.610Z,68.08
2022-08-10T08:50:08.862Z,67.41
2022-08-10T08:50:48.484Z,66.19
2022-08-10T08:52:07.330Z,66.67
2022-08-10T08:54:02.370Z,66.87
2022-08-10T08:54:58.355Z,66.65
2022-08-10T08:56:18.749Z,66.10
2022-08-10T08:57:50.632Z,66.71
2022-08-10T08:58:57.950Z,65.86
2022-08-10T09:00:13.790Z,65.92
2022-08-10T09:01:18.374Z,65.42
2022-08-10T09:02:38.928Z,65.18
2022-08-10T09:03:43.771Z,65.20
2022-08-10T09:04:51.758Z,66.44
2022-08-10T09:05:59.430Z,64.16
2022-08-10T09:07:59.739Z,63.81
2022-08-10T09:08:58.358Z,62.89
2022-08-10T09:10:04.879Z,64.71
2022-08-10T09:11:14.832Z,63.87
2022-08-10T09:12:35.490Z,64.18
2022-08-10T09:13:49.096Z,62.56
2022-08-10T09:14:53.761Z,62.69
2022-08-10T09:16:00.663Z,62.89
2022-08-10T09:17:35.041Z,62.19
2022-08-10T09:18:46.077Z,62.57
2022-08-10T09:19:47.898Z,62.56
2022-08-10T09:20:51.846Z,61.53
2022-08-10T09:22:18.187Z,62.14
2022-08-10T09:24:02.166Z,61.35
2022-08-10T09:25:18.041Z,61.63
2022-08-10T09:26:21.953Z,62.53
2022-08-10T09:27:35.382Z,62.23
2022-08-10T09:28:40.680Z,62.66
2022-08-10T09:29:45.241Z,62.00
2022-08-10T09:31:23.129Z,61.57
2022-08-10T09:36:14.338Z,60.74
2022-08-10T09:36:19.619Z,60.95
2022-08-10T09:36:21.006Z,62.43
2022-08-10T09:38:01.175Z,60.69
2022-08-10T09:38:54.785Z,60.17
2022-08-10T09:40:12.363Z,61.03
2022-08-10T09:41:23.496Z,61.50
2022-08-10T09:42:44.127Z,61.16
2022-08-10T09:43:52.506Z,59.46
2022-08-10T09:45:03.662Z,58.97
2022-08-10T09:46:21.811Z,58.70
2022-08-10T09:48:00.110Z,58.71
2022-08-10T09:49:22.361Z,59.69
2022-08-10T09:50:59.021Z,60.33
2022-08-10T09:52:03.153Z,58.75
2022-08-10T09:53:05.708Z,59.55
2022-08-10T09:54:16.447Z,59.33
2022-08-10T09:56:17.750Z,59.55
2022-08-10T09:57:41.323Z,57.25
2022-08-10T09:58:38.747Z,57.78
2022-08-10T10:00:01.262Z,58.22
2022-08-10T10:01:22.362Z,58.54
2022-08-10T10:02:40.944Z,57.93
2022-08-10T10:03:47.435Z,57.91
2022-08-10T10:05:04.543Z,57.63
2022-08-10T10:06:13.704Z,58.89
2022-08-10T10:07:23.015Z,57.43
2022-08-10T10:08:29.353Z,57.28
2022-08-10T10:09:37.105Z,57.14
2022-08-10T10:10:53.494Z,56.57
2022-08-10T10:12:07.026Z,57.23
2022-08-10T10:13:41.569Z,56.66
2022-08-10T10:15:24.503Z,56.57
2022-08-10T10:16:46.154Z,55.79
2022-08-10T10:18:03.370Z,54.69
2022-08-10T10:19:10.516Z,54.19
2022-08-10T10:20:21.489Z,55.24
2022-08-10T10:21:54.772Z,56.34
2022-08-10T10:23:16.963Z,56.04
2022-08-10T10:24:22.968Z,56.35
2022-08-10T10:25:51.443Z,55.43
2022-08-10T10:27:00.182Z,55.83
2022-08-10T10:28:16.937Z,52.90
2022-08-10T10:29:58.786Z,53.85
2022-08-10T10:31:04.957Z,53.18
2022-08-10T10:32:37.597Z,54.19
2022-08-10T10:34:02.424Z,53.18
2022-08-10T10:35:04.312Z,53.11
2022-08-10T10:36:07.244Z,54.29
2022-08-10T10:37:10.754Z,52.44
2022-08-10T10:38:13.942Z,53.42
2022-08-10T10:39:23.802Z,53.47
2022-08-10T10:40:28.012Z,53.27
2022-08-10T10:42:04.649Z,52.45
2022-08-10T10:43:25.150Z,53.26
2022-08-10T10:44:47.238Z,54.30
2022-08-10T10:45:55.767Z,54.06
2022-08-10T10:47:16.032Z,51.68
2022-08-10T10:48:23.928Z,53.39
2022-08-10T10:49:33.237Z,50.82
2022-08-10T10:50:39.082Z,53.18
2022-08-10T10:51:48.458Z,52.57
2022-08-10T10:52:56.239Z,53.19
2022-08-10T10:54:13.551Z,50.70
2022-08-10T10:55:30.532Z,51.95
2022-08-10T10:56:51.103Z,53.68
2022-08-10T10:57:58.643Z,53.66
2022-08-10T10:59:33.318Z,52.18
2022-08-10T11:00:39.776Z,53.33
2022-08-10T11:01:48.080Z,51.46
2022-08-10T11:02:49.841Z,51.26
2022-08-10T11:04:10.161Z,53.06
2022-08-10T11:05:32.215Z,52.35
2022-08-10T11:06:56.827Z,52.95
2022-08-10T11:08:04.201Z,52.79
2022-08-10T11:10:08.886Z,52.18
2022-08-10T11:10:47.362Z,52.68
2022-08-10T11:12:01.471Z,50.67
2022-08-10T11:14:24.951Z,50.15
2022-08-10T11:14:48.864Z,47.82
2022-08-10T11:16:08.545Z,49.28
2022-08-10T11:17:39.727Z,50.40
2022-08-10T11:18:41.499Z,49.66
2022-08-10T11:20:01.707Z,48.94
2022-08-10T11:21:14.677Z,50.16
2022-08-10T11:22:20.472Z,48.97
2022-08-10T11:23:40.625Z,48.44
2022-08-10T11:24:49.489Z,47.67
2022-08-10T11:26:01.932Z,47.01
2022-08-10T11:27:03.727Z,48.96
2022-08-10T11:28:16.542Z,48.18
2022-08-10T11:29:37.246Z,48.70
2022-08-10T11:30:59.498Z,48.05
2022-08-10T11:32:21.515Z,48.92
2022-08-10T11:33:32.611Z,49.07
2022-08-10T11:34:48.401Z,48.59
2022-08-10T11:36:02.613Z,48.17
2022-08-10T11:37:10.744Z,48.28
2022-08-10T11:38:34.209Z,47.93
2022-08-10T11:39:49.365Z,48.76
2022-08-10T11:41:12.790Z,48.66
2022-08-10T11:42:41.756Z,47.96
2022-08-10T11:43:49.238Z,49.13
2022-08-10T11:44:57.774Z,48.93
2022-08-10T11:46:09.153Z,49.41
2022-08-10T11:47:46.610Z,47.46
2022-08-10T11:49:02.070Z,49.46
2022-08-10T11:50:24.555Z,49.49
2022-08-10T11:51:29.084Z,50.01
2022-08-10T11:52:51.236Z,49.39
2022-08-10T11:53:59.108Z,49.36
2022-08-10T11:55:06.324Z,48.39
2022-08-10T11:56:11.498Z,48.17
2022-08-10T11:57:16.034Z,48.81
2022-08-10T11:58:40.334Z,50.08
2022-08-10T11:59:58.098Z,49.68
2022-08-10T12:01:02.810Z,48.55
2022-08-10T12:02:06.250Z,48.72
2022-08-10T12:03:09.079Z,48.55
2022-08-10T12:04:11.988Z,48.84
2022-08-10T12:05:18.276Z,49.07
2022-08-10T12:06:34.004Z,49.56
2022-08-10T12:10:05.324Z,49.35
2022-08-10T12:10:07.322Z,48.49
2022-08-10T12:10:52.610Z,49.50
2022-08-10T12:11:54.583Z,49.06
2022-08-10T12:13:03.171Z,47.17
2022-08-10T12:14:21.566Z,48.57
2022-08-10T12:15:35.845Z,48.38
2022-08-10T12:16:40.317Z,48.31
2022-08-10T12:18:02.498Z,47.19
2022-08-10T12:19:04.771Z,48.75
2022-08-10T12:20:08.969Z,47.46
2022-08-10T12:21:21.585Z,47.14
2022-08-10T12:22:28.594Z,48.36
2022-08-10T12:23:30.421Z,47.30
2022-08-10T12:24:53.996Z,48.33
2022-08-10T12:26:07.728Z,47.67
2022-08-10T12:27:13.221Z,46.71
2022-08-10T12:28:20.593Z,47.45
2022-08-10T12:29:26.682Z,46.07
2022-08-10T12:30:32.604Z,46.92
2022-08-10T12:31:52.801Z,47.58
2022-08-10T12:32:54.569Z,45.93
2022-08-10T12:34:04.477Z,44.86
2022-08-10T12:35:35.782Z,45.62
2022-08-10T12:39:03.362Z,45.38
2022-08-10T12:40:33.822Z,45.65
2022-08-10T12:41:48.814Z,45.95
2022-08-10T12:44:03.853Z,44.22
2022-08-10T12:44:41.274Z,43.15
2022-08-10T12:45:44.224Z,44.75
2022-08-10T12:46:51.165Z,44.48
2022-08-10T12:47:55.984Z,44.16
2022-08-10T12:49:07.278Z,43.94
2022-08-10T12:50:30.911Z,44.13
2022-08-10T12:51:35.836Z,44.25
2022-08-10T12:52:48.833Z,44.79
2022-08-10T12:53:53.657Z,44.37
2022-08-10T12:54:57.474Z,44.08
2022-08-10T12:56:01.964Z,43.13
2022-08-10T12:57:08.091Z,43.22
2022-08-10T12:58:58.798Z,42.33
2022-08-10T12:59:43.162Z,42.61
2022-08-10T13:01:12.746Z,43.12
2022-08-10T13:02:11.079Z,42.57
2022-08-10T13:03:14.139Z,41.48
2022-08-10T13:04:24.844Z,39.74
2022-08-10T13:05:27.532Z,42.52
2022-08-10T13:06:33.691Z,42.84
2022-08-10T13:08:25.965Z,42.97
2022-08-10T13:09:13.202Z,40.98
2022-08-10T13:10:16.784Z,41.75
2022-08-10T13:12:34.368Z,41.79
2022-08-10T13:12:44.363Z,40.02
2022-08-10T13:13:49.395Z,41.17
2022-08-10T13:14:53.335Z,40.12
2022-08-10T13:15:57.761Z,39.85
2022-08-10T13:17:01.016Z,38.65
2022-08-10T13:18:04.078Z,38.49
2022-08-10T13:19:06.774Z,39.45
2022-08-10T13:20:20.240Z,38.96
2022-08-10T13:21:22.287Z,38.06
2022-08-10T13:22:25.946Z,39.94
2022-08-10T13:23:29.353Z,39.44
2022-08-10T13:24:38.005Z,38.02
2022-08-10T13:25:41.958Z,40.24
2022-08-10T13:27:24.462Z,39.62
2022-08-10T13:28:37.116Z,40.72
2022-08-10T13:29:38.025Z,39.44
2022-08-10T13:30:43.742Z,40.14
2022-08-10T13:32:10.161Z,39.62
2022-08-10T13:33:14.424Z,39.08
2022-08-10T13:34:43.822Z,38.37
2022-08-10T13:35:39.626Z,38.98
2022-08-10T13:36:42.425Z,39.03
2022-08-10T13:37:45.509Z,38.53
2022-08-10T13:38:49.098Z,38.88
2022-08-10T13:39:58.020Z,36.09
2022-08-10T13:41:02.835Z,37.47
2022-08-10T13:42:06.239Z,36.88
2022-08-10T13:43:09.293Z,37.53
2022-08-10T13:44:13.403Z,36.35
2022-08-10T13:45:20.659Z,36.55
2022-08-10T13:46:23.678Z,37.32
2022-08-10T13:47:42.411Z,35.43
2022-08-10T13:48:53.807Z,36.48
2022-08-10T13:50:15.607Z,37.07
2022-08-10T13:51:56.547Z,37.24
2022-08-10T13:52:50.967Z,36.60
2022-08-10T13:53:57.384Z,34.34
2022-08-10T13:55:00.798Z,36.06
2022-08-10T13:56:05.559Z,36.11
2022-08-10T13:57:07.631Z,37.83
2022-08-10T13:58:10.683Z,37.58
2022-08-10T13:59:18.364Z,36.62
2022-08-10T14:00:36.477Z,36.73
2022-08-10T14:01:40.908Z,35.91
2022-08-10T14:03:03.270Z,35.85
2022-08-10T14:04:07.175Z,35.19
2022-08-10T14:05:09.981Z,34.72
2022-08-10T14:06:15.637Z,32.37
2022-08-10T14:07:17.905Z,35.17
2022-08-10T14:08:21.883Z,33.02
2022-08-10T14:09:33.300Z,33.23
2022-08-10T14:11:09.690Z,35.06
2022-08-10T14:12:00.199Z,34.84
2022-08-10T14:13:03.569Z,33.95
2022-08-10T14:14:07.508Z,34.04
2022-08-10T14:15:13.927Z,33.71
2022-08-10T14:16:15.990Z,34.26
2022-08-10T14:17:21.182Z,34.94
2022-08-10T14:18:24.122Z,31.76
2022-08-10T14:19:31.013Z,33.04
2022-08-10T14:20:36.741Z,33.09
2022-08-10T14:21:41.915Z,34.80
2022-08-10T14:22:44.230Z,33.31
2022-08-10T14:23:53.061Z,35.07
2022-08-10T14:25:04.788Z,34.17
2022-08-10T14:26:09.191Z,34.28
2022-08-10T14:27:12.376Z,34.82
2022-08-10T14:28:14.883Z,32.56
2022-08-10T14:29:20.127Z,32.93
2022-08-10T14:30:22.952Z,33.82
2022-08-10T14:31:34.647Z,32.99
2022-08-10T14:32:45.507Z,30.16
2022-08-10T14:33:56.389Z,32.28
2022-08-10T14:36:20.493Z,32.99
2022-08-10T14:36:47.394Z,33.68
2022-08-10T14:37:56.438Z,33.79
2022-08-10T14:38:58.997Z,33.75
2022-08-10T14:40:09.054Z,32.56
2022-08-10T14:42:01.868Z,33.69
2022-08-10T14:42:49.801Z,32.28
2022-08-10T14:43:54.766Z,32.79
2022-08-10T14:45:03.350Z,30.95
2022-08-10T14:46:07.061Z,31.29
2022-08-10T14:47:59.358Z,33.64
2022-08-10T14:48:34.092Z,33.93
2022-08-10T14:49:58.132Z,33.14
2022-08-10T14:50:59.936Z,30.91
2022-08-10T14:52:03.284Z,31.50
2022-08-10T14:53:09.652Z,30.21
2022-08-10T14:54:16.028Z,32.68
2022-08-10T14:55:20.120Z,32.58
2022-08-10T14:56:30.458Z,32.98
2022-08-10T14:58:20.274Z,33.00
2022-08-10T14:59:05.370Z,32.05